KJCT/JCT METAR and TAF weather

Enter ICAO airport designator
Station Type Date Time Source
KJCT METAR 2022/08/16 18:51 UTC NOAA

KJCT 161851Z AUTO 09010G15KT 10SM BKN055 33/18 A3000 RMK AO2 SLP120 T03280183


Station Type Date Time Source
KJCT Decoded METAR 2022/08/16 18:51 UTC NOAA

KIMBLE COUNTY AIRPORT, TX, United States (KJCT) 30-31N 099-46W 523M
Aug 16, 2022 - 02:51 PM EDT / 2022.08.16 1851 UTC
Wind: from the E (090 degrees) at 12 MPH (10 KT) gusting to 17 MPH (15 KT):0
Visibility: 10 mile(s):0
Sky conditions: mostly cloudy
Temperature: 91.0 F (32.8 C)
Dew Point: 64.9 F (18.3 C)
Relative Humidity: 42%
Pressure (altimeter): 30 in. Hg (1015 hPa)
ob: KJCT 161851Z AUTO 09010G15KT 10SM BKN055 33/18 A3000 RMK AO2 SLP120 T03280183
cycle: 19

Station Type Date Time Source
KJCT TAF 2022/08/16 18:22 UTC NOAA

TAF KJCT 161720Z 1618/1718 16010KT P6SM FEW050 SCT250
FM170200 VRB03KT P6SM FEW250

Example: see airport list